Time;durP1;ratioP1;P1;durP2;ratioP2;P2;SDS_P1;SDS_P2;PMS_P1;PMS_P2;Temp;Humidity;BMP_temperature;BMP_pressure;BME280_temperature;BME280_humidity;BME280_pressure;Samples;Min_cycle;Max_cycle;Signal;HPM_P1;HPM_P2
2021/07/10 00:00:40;;;;;;;20.45;8.63;;;23.80;73.70;;;;;;4917561;29;20063;-77
2021/07/10 00:03:06;;;;;;;14.85;8.95;;;23.80;73.80;;;;;;4917608;29;20025;-76
2021/07/10 00:05:33;;;;;;;20.02;9.20;;;23.70;73.80;;;;;;4917826;29;20458;-77
2021/07/10 00:07:59;;;;;;;14.73;9.30;;;23.70;73.80;;;;;;4900887;29;20145;-77
2021/07/10 00:10:24;;;;;;;13.48;9.18;;;23.70;73.80;;;;;;4917445;29;20099;-77
2021/07/10 00:12:50;;;;;;;14.50;8.93;;;23.70;73.90;;;;;;4917509;29;20537;-77
2021/07/10 00:15:19;;;;;;;16.40;9.75;;;23.70;74.10;;;;;;4917489;29;20032;-77
2021/07/10 00:17:45;;;;;;;23.23;9.98;;;23.70;74.20;;;;;;4917636;29;20127;-77
2021/07/10 00:20:11;;;;;;;17.33;10.05;;;23.60;74.10;;;;;;4917527;29;20032;-77
2021/07/10 00:22:38;;;;;;;14.80;9.98;;;23.60;74.20;;;;;;4917046;29;20039;-77
2021/07/10 00:25:09;;;;;;;18.80;10.48;;;23.60;74.20;;;;;;4917464;29;20036;-77
2021/07/10 00:27:36;;;;;;;16.02;9.52;;;23.60;74.40;;;;;;4900495;29;20386;-77
2021/07/10 00:30:03;;;;;;;14.75;9.43;;;23.60;74.60;;;;;;4917575;29;20387;-77
2021/07/10 00:32:29;;;;;;;11.98;9.60;;;23.50;74.80;;;;;;4917291;29;20032;-77
2021/07/10 00:34:54;;;;;;;13.45;9.73;;;23.50;74.90;;;;;;4917695;29;20029;-77
2021/07/10 00:37:20;;;;;;;14.35;9.73;;;23.50;75.00;;;;;;4900263;29;20036;-77
2021/07/10 00:39:46;;;;;;;16.38;9.65;;;23.60;75.20;;;;;;4917173;29;20459;-77
2021/07/10 00:42:16;;;;;;;12.35;10.25;;;23.50;75.20;;;;;;4917158;29;20024;-77
2021/07/10 00:44:42;;;;;;;15.13;10.70;;;23.50;75.30;;;;;;4917338;29;20020;-77
2021/07/10 00:47:08;;;;;;;14.43;10.57;;;23.50;75.40;;;;;;4917548;29;20028;-78
2021/07/10 00:49:34;;;;;;;16.48;10.80;;;23.40;75.50;;;;;;4917641;29;20039;-78
2021/07/10 00:51:59;;;;;;;16.10;10.77;;;23.40;75.70;;;;;;4917358;29;20036;-78
2021/07/10 00:54:25;;;;;;;17.67;12.07;;;23.40;75.80;;;;;;4917418;29;20048;-78
2021/07/10 00:56:58;;;;;;;17.73;11.75;;;23.30;75.90;;;;;;4917105;29;20040;-78
2021/07/10 00:59:27;;;;;;;16.10;11.98;;;23.30;76.10;;;;;;4899889;29;20028;-78
2021/07/10 01:01:52;;;;;;;17.88;12.25;;;23.30;76.20;;;;;;4916772;29;20464;-78
2021/07/10 01:04:19;;;;;;;16.92;12.20;;;23.30;76.30;;;;;;4899725;29;20068;-78
2021/07/10 01:06:47;;;;;;;19.88;12.82;;;23.20;76.30;;;;;;4916825;29;20378;-78
2021/07/10 01:09:16;;;;;;;19.20;12.75;;;23.20;76.50;;;;;;4899790;29;20079;-78
2021/07/10 01:11:42;;;;;;;20.27;12.98;;;23.10;76.60;;;;;;4899586;29;20036;-78
2021/07/10 01:14:08;;;;;;;20.75;13.50;;;23.10;76.70;;;;;;4899588;29;20032;-77
2021/07/10 01:16:34;;;;;;;15.43;12.25;;;23.00;76.80;;;;;;4916233;29;20463;-76
2021/07/10 01:19:00;;;;;;;19.23;12.35;;;23.00;77.10;;;;;;4916394;29;20064;-77
2021/07/10 01:21:25;;;;;;;21.88;12.80;;;22.90;77.20;;;;;;4916474;29;20031;-76
2021/07/10 01:23:51;;;;;;;25.98;12.85;;;22.90;77.50;;;;;;4916162;29;20020;-76
2021/07/10 01:26:19;;;;;;;18.75;12.82;;;22.90;77.70;;;;;;4916499;29;20119;-77
2021/07/10 01:28:44;;;;;;;17.60;12.00;;;22.90;77.90;;;;;;4899293;29;20500;-77
2021/07/10 01:31:10;;;;;;;21.77;12.82;;;22.80;78.10;;;;;;4916430;29;20123;-77
2021/07/10 01:33:37;;;;;;;18.45;11.70;;;22.80;78.50;;;;;;4915376;29;20467;-76
2021/07/10 01:36:03;;;;;;;15.52;12.30;;;22.70;78.60;;;;;;4916323;29;20467;-76
2021/07/10 01:38:29;;;;;;;16.42;12.27;;;22.70;78.90;;;;;;4916041;29;20036;-76
2021/07/10 01:40:54;;;;;;;16.95;13.32;;;22.70;79.20;;;;;;4916058;29;20110;-76
2021/07/10 01:43:20;;;;;;;15.38;12.43;;;22.60;79.30;;;;;;4915917;29;20034;-76
2021/07/10 01:45:46;;;;;;;16.75;12.85;;;22.60;79.60;;;;;;4915820;29;20039;-76
2021/07/10 01:48:13;;;;;;;16.42;12.50;;;22.60;79.70;;;;;;4915669;29;20099;-76
2021/07/10 01:50:40;;;;;;;17.65;12.88;;;22.50;80.00;;;;;;4915787;29;20083;-77
2021/07/10 01:53:07;;;;;;;16.58;11.95;;;22.50;80.30;;;;;;4915715;29;20084;-77
2021/07/10 01:55:33;;;;;;;20.45;12.00;;;22.50;80.40;;;;;;4915603;29;20072;-77
2021/07/10 01:57:59;;;;;;;17.30;11.73;;;22.50;80.70;;;;;;4915781;29;20036;-77
2021/07/10 02:00:28;;;;;;;15.93;12.55;;;22.50;80.90;;;;;;4915854;29;20069;-77
2021/07/10 02:02:54;;;;;;;15.38;12.05;;;22.50;81.20;;;;;;4915789;29;20029;-77
2021/07/10 02:05:22;;;;;;;16.23;12.57;;;22.50;81.40;;;;;;4915802;29;20033;-78
2021/07/10 02:07:49;;;;;;;24.25;12.82;;;22.40;81.50;;;;;;4915842;29;20499;-77
2021/07/10 02:10:16;;;;;;;15.35;12.32;;;22.50;81.70;;;;;;4915723;29;20039;-77
2021/07/10 02:12:45;;;;;;;18.70;12.70;;;22.50;81.80;;;;;;4915641;29;20111;-78
2021/07/10 02:15:12;;;;;;;15.98;13.10;;;22.50;81.90;;;;;;4915696;29;20368;-77
2021/07/10 02:17:38;;;;;;;15.00;12.23;;;22.60;82.10;;;;;;4915711;29;20032;-77
2021/07/10 02:20:06;;;;;;;17.65;12.25;;;22.70;82.10;;;;;;4915648;29;20076;-77
2021/07/10 02:22:32;;;;;;;17.63;11.77;;;22.90;82.20;;;;;;4915575;29;20024;-78
2021/07/10 02:24:57;;;;;;;13.18;11.20;;;23.20;82.00;;;;;;4915682;29;20031;-77
2021/07/10 02:27:23;;;;;;;16.83;11.80;;;23.60;81.20;;;;;;4915623;29;20039;-77
2021/07/10 02:29:49;;;;;;;14.32;11.15;;;24.00;80.10;;;;;;4915730;29;20032;-78
2021/07/10 02:32:15;;;;;;;14.82;11.30;;;24.50;78.80;;;;;;4915660;29;20027;-77
2021/07/10 02:34:41;;;;;;;19.92;10.77;;;25.00;77.30;;;;;;4915632;29;20383;-77
2021/07/10 02:37:06;;;;;;;15.15;10.25;;;25.60;75.80;;;;;;4915421;29;20419;-77
2021/07/10 02:39:32;;;;;;;13.98;10.27;;;26.10;74.10;;;;;;4916270;29;20028;-78
2021/07/10 02:41:58;;;;;;;14.32;10.70;;;26.70;72.70;;;;;;4917689;29;20083;-77
2021/07/10 02:44:24;;;;;;;14.93;10.35;;;27.20;71.30;;;;;;4915699;29;20020;-77
2021/07/10 02:46:49;;;;;;;14.38;10.30;;;27.80;69.90;;;;;;4919150;29;20039;-76
2021/07/10 02:49:15;;;;;;;15.45;10.50;;;28.30;68.50;;;;;;4918869;29;20032;-76
2021/07/10 02:51:41;;;;;;;11.45;10.25;;;28.90;67.10;;;;;;4919188;29;20182;-76
2021/07/10 02:54:06;;;;;;;16.70;9.35;;;29.40;65.80;;;;;;4918955;29;20056;-76
2021/07/10 02:56:32;;;;;;;11.18;9.30;;;29.90;64.30;;;;;;4918898;29;20035;-76
2021/07/10 02:58:58;;;;;;;15.10;9.75;;;30.40;63.20;;;;;;4918698;29;20020;-77
2021/07/10 03:01:24;;;;;;;14.73;9.30;;;31.00;61.80;;;;;;4918769;29;20497;-76
2021/07/10 03:03:50;;;;;;;12.80;8.65;;;31.50;60.60;;;;;;4918955;29;20028;-76
2021/07/10 03:06:16;;;;;;;11.07;9.27;;;32.00;59.60;;;;;;4918710;29;20030;-76
2021/07/10 03:08:42;;;;;;;12.93;9.23;;;32.60;58.40;;;;;;4918738;29;20028;-76
2021/07/10 03:11:10;;;;;;;15.70;10.80;;;33.10;57.30;;;;;;4918626;29;20024;-75
2021/07/10 03:13:35;;;;;;;11.13;9.27;;;33.50;55.60;;;;;;4918477;29;20483;-75
2021/07/10 03:16:02;;;;;;;14.15;9.75;;;33.50;55.00;;;;;;4918455;29;20084;-75
2021/07/10 03:18:28;;;;;;;13.25;9.43;;;33.70;54.90;;;;;;4918318;29;20115;-75
2021/07/10 03:20:53;;;;;;;14.70;10.35;;;34.20;54.40;;;;;;4918307;29;20107;-74
2021/07/10 03:23:19;;;;;;;12.80;10.55;;;34.80;53.60;;;;;;4918113;29;20027;-74
2021/07/10 03:25:47;;;;;;;16.00;11.15;;;35.40;52.70;;;;;;4918145;29;20020;-74
2021/07/10 03:28:13;;;;;;;10.73;8.75;;;36.00;51.80;;;;;;4918326;29;20082;-74
2021/07/10 03:30:39;;;;;;;10.80;9.48;;;36.50;50.90;;;;;;4918117;29;20024;-74
2021/07/10 03:33:04;;;;;;;16.63;10.23;;;37.20;50.10;;;;;;4918267;29;20443;-75
2021/07/10 03:35:30;;;;;;;13.63;9.55;;;37.70;49.20;;;;;;4918243;29;20032;-74
2021/07/10 03:37:57;;;;;;;20.35;8.90;;;38.20;48.50;;;;;;4917940;29;20079;-75
2021/07/10 03:40:26;;;;;;;10.65;8.88;;;38.60;48.00;;;;;;4917992;29;20549;-74
2021/07/10 03:42:51;;;;;;;15.60;8.95;;;39.10;47.20;;;;;;4918098;29;20031;-74
2021/07/10 03:45:18;;;;;;;9.80;8.80;;;39.50;46.50;;;;;;4917932;29;20028;-75
2021/07/10 03:47:44;;;;;;;11.48;8.60;;;39.80;46.00;;;;;;4917684;29;20036;-75
2021/07/10 03:50:12;;;;;;;11.23;7.72;;;39.80;45.80;;;;;;4900772;29;20032;-75
2021/07/10 03:52:38;;;;;;;11.77;7.38;;;39.90;45.60;;;;;;4917415;29;20024;-75
2021/07/10 03:55:07;;;;;;;7.97;7.03;;;40.00;44.80;;;;;;4917432;29;20150;-74
2021/07/10 03:57:34;;;;;;;10.80;7.28;;;40.10;43.80;;;;;;4916861;29;20060;-74
2021/07/10 04:00:00;;;;;;;8.18;6.85;;;40.10;43.60;;;;;;4917479;29;20028;-75
2021/07/10 04:02:26;;;;;;;9.35;7.10;;;40.30;43.20;;;;;;4917532;29;20024;-75
2021/07/10 04:04:51;;;;;;;7.82;6.68;;;40.80;42.70;;;;;;4917580;29;20034;-75
2021/07/10 04:07:17;;;;;;;10.10;7.13;;;41.20;42.10;;;;;;4917369;29;20079;-75
2021/07/10 04:09:43;;;;;;;13.00;7.45;;;41.80;41.50;;;;;;4917869;29;20743;-75
2021/07/10 04:12:09;;;;;;;10.52;7.10;;;42.30;40.90;;;;;;4917333;29;20028;-75
2021/07/10 04:14:36;;;;;;;9.88;6.82;;;42.60;40.50;;;;;;4917321;29;20364;-75
2021/07/10 04:17:03;;;;;;;9.88;7.50;;;43.10;40.10;;;;;;4900192;29;20100;-75
2021/07/10 04:19:29;;;;;;;12.30;7.57;;;43.50;39.40;;;;;;4917181;29;20020;-75
2021/07/10 04:21:55;;;;;;;11.18;7.07;;;43.90;39.00;;;;;;4917222;29;20099;-76
2021/07/10 04:24:20;;;;;;;13.50;7.47;;;43.90;38.40;;;;;;4917239;29;20028;-75
2021/07/10 04:26:46;;;;;;;9.88;7.22;;;43.20;38.20;;;;;;4917217;29;20040;-75
2021/07/10 04:29:12;;;;;;;9.23;6.85;;;42.20;39.60;;;;;;4931347;29;20028;-75
2021/07/10 04:31:37;;;;;;;13.95;7.30;;;41.70;39.80;;;;;;4916875;29;20032;-75
2021/07/10 04:34:03;;;;;;;13.98;7.50;;;41.60;40.10;;;;;;4916741;29;20475;-75
2021/07/10 04:36:29;;;;;;;10.50;7.03;;;41.90;40.30;;;;;;4916892;29;20483;-75
2021/07/10 04:38:54;;;;;;;23.95;9.35;;;42.50;40.00;;;;;;4916082;29;20489;-76
2021/07/10 04:41:20;;;;;;;10.25;7.40;;;43.00;39.70;;;;;;4916742;29;20082;-75
2021/07/10 04:43:46;;;;;;;16.85;7.65;;;43.40;39.20;;;;;;4916620;29;20032;-76
2021/07/10 04:46:12;;;;;;;11.68;7.53;;;43.90;39.00;;;;;;4916689;29;20031;-75
2021/07/10 04:48:37;;;;;;;16.80;7.50;;;44.40;38.60;;;;;;4916486;29;20390;-76
2021/07/10 04:51:03;;;;;;;12.93;7.32;;;44.90;38.00;;;;;;4916541;29;20156;-75
2021/07/10 04:53:29;;;;;;;13.05;7.25;;;45.30;37.50;;;;;;4916616;29;20032;-75
2021/07/10 04:55:55;;;;;;;17.85;10.70;;;45.80;37.20;;;;;;4916550;29;20181;-75
2021/07/10 04:58:21;;;;;;;15.93;7.38;;;46.20;36.80;;;;;;4916289;29;20034;-75
2021/07/10 05:00:46;;;;;;;7.80;7.00;;;46.30;36.40;;;;;;4916383;29;20386;-76
2021/07/10 05:03:12;;;;;;;16.38;7.25;;;46.60;36.30;;;;;;4916263;29;20051;-75
2021/07/10 05:05:39;;;;;;;12.60;7.93;;;46.90;36.10;;;;;;4916445;29;20020;-75
2021/07/10 05:08:05;;;;;;;10.88;8.25;;;47.20;35.50;;;;;;4916043;29;20435;-76
2021/07/10 05:10:31;;;;;;;13.02;10.30;;;47.50;35.20;;;;;;4915911;29;20087;-75
2021/07/10 05:12:57;;;;;;;12.18;7.75;;;47.80;34.80;;;;;;4915979;29;20112;-76
2021/07/10 05:15:22;;;;;;;12.70;7.38;;;47.80;34.40;;;;;;4915859;29;20031;-77
2021/07/10 05:17:48;;;;;;;12.38;6.95;;;48.00;34.20;;;;;;4915824;29;20084;-76
2021/07/10 05:20:16;;;;;;;13.20;7.63;;;48.10;33.80;;;;;;4915801;29;20076;-76
2021/07/10 05:22:42;;;;;;;13.35;7.15;;;48.10;33.50;;;;;;4898802;29;20398;-76
2021/07/10 05:25:10;;;;;;;16.27;6.82;;;48.30;33.40;;;;;;4915300;29;20032;-76
2021/07/10 05:27:36;;;;;;;11.00;6.72;;;48.60;33.40;;;;;;4915141;29;20107;-75
2021/07/10 05:30:12;;;;;;;27.92;7.82;;;48.90;33.00;;;;;;4915668;29;20035;-76
2021/07/10 05:32:38;;;;;;;12.93;7.72;;;48.90;32.70;;;;;;4915463;29;20035;-76
2021/07/10 05:35:06;;;;;;;11.00;6.60;;;49.10;32.70;;;;;;4915110;29;20445;-76
2021/07/10 05:37:31;;;;;;;14.57;6.00;;;49.20;32.50;;;;;;4915037;29;20126;-76
2021/07/10 05:39:57;;;;;;;8.00;6.05;;;49.20;32.10;;;;;;4915087;29;20095;-76
2021/07/10 05:42:23;;;;;;;17.13;6.22;;;49.40;31.60;;;;;;4897880;29;20111;-76
2021/07/10 05:44:49;;;;;;;12.70;6.10;;;49.20;31.40;;;;;;4915411;29;20028;-76
2021/07/10 05:47:14;;;;;;;9.10;5.63;;;49.40;31.40;;;;;;4915050;29;20088;-76
2021/07/10 05:49:40;;;;;;;11.93;7.30;;;49.20;31.00;;;;;;4915279;29;20032;-76
2021/07/10 05:52:06;;;;;;;8.40;6.20;;;49.10;31.20;;;;;;4915316;29;20070;-76
2021/07/10 05:54:32;;;;;;;9.40;6.18;;;49.10;31.00;;;;;;4914973;29;20106;-76
2021/07/10 05:56:57;;;;;;;13.93;6.25;;;49.00;31.00;;;;;;4914817;29;20087;-75
2021/07/10 05:59:23;;;;;;;11.27;5.90;;;48.80;31.20;;;;;;4914922;29;20024;-76
2021/07/10 06:01:49;;;;;;;7.43;5.32;;;48.80;31.10;;;;;;4914824;29;20024;-76
2021/07/10 06:04:14;;;;;;;6.10;5.47;;;48.80;31.30;;;;;;4914633;29;20071;-75
2021/07/10 06:06:40;;;;;;;10.73;5.80;;;48.70;31.20;;;;;;4915079;29;20107;-73
2021/07/10 06:09:06;;;;;;;15.27;5.72;;;49.00;31.00;;;;;;4915140;29;20029;-75
2021/07/10 06:11:31;;;;;;;8.52;5.72;;;49.30;30.90;;;;;;4897770;29;20028;-76
2021/07/10 06:13:57;;;;;;;13.35;5.70;;;49.60;30.80;;;;;;4914387;29;20168;-76
2021/07/10 06:16:23;;;;;;;7.85;5.25;;;50.00;30.60;;;;;;4906909;29;20028;-75
2021/07/10 06:18:48;;;;;;;11.23;6.18;;;50.20;30.30;;;;;;4922131;29;20028;-75
2021/07/10 06:21:14;;;;;;;10.85;6.28;;;50.10;30.40;;;;;;4926236;29;20462;-75
2021/07/10 06:23:43;;;;;;;7.65;5.70;;;50.10;30.20;;;;;;4927384;29;20135;-75
2021/07/10 06:26:09;;;;;;;10.98;6.22;;;50.30;30.20;;;;;;4925431;29;20028;-75
2021/07/10 06:28:35;;;;;;;9.38;5.82;;;50.30;30.50;;;;;;4926793;29;20028;-76
2021/07/10 06:31:00;;;;;;;17.80;7.05;;;50.30;30.40;;;;;;4927358;29;20027;-75
2021/07/10 06:33:26;;;;;;;14.85;6.38;;;50.40;30.60;;;;;;4925258;29;20048;-75
2021/07/10 06:35:52;;;;;;;11.50;5.65;;;50.50;30.50;;;;;;4927572;29;20129;-76
2021/07/10 06:38:17;;;;;;;8.13;6.30;;;50.60;30.30;;;;;;4926304;29;20024;-76
2021/07/10 06:40:43;;;;;;;9.48;5.57;;;50.40;30.30;;;;;;4925944;29;20035;-76
2021/07/10 06:43:09;;;;;;;11.05;5.28;;;50.30;30.20;;;;;;4927157;29;20023;-76
2021/07/10 06:45:34;;;;;;;12.80;6.70;;;50.00;30.10;;;;;;4925944;29;20092;-76
2021/07/10 06:48:01;;;;;;;9.70;5.97;;;49.50;30.20;;;;;;4926265;29;20477;-79
2021/07/10 06:50:28;;;;;;;5.40;4.90;;;49.10;30.00;;;;;;4932844;29;20057;-80
2021/07/10 06:52:54;;;;;;;7.78;5.25;;;48.30;29.90;;;;;;4939531;29;20027;-79
2021/07/10 06:55:19;;;;;;;10.57;5.25;;;47.70;30.10;;;;;;4937197;29;20070;-79
2021/07/10 06:57:45;;;;;;;10.80;6.03;;;47.50;30.20;;;;;;4937260;29;20074;-79
2021/07/10 07:00:17;;;;;;;7.20;5.25;;;47.20;30.40;;;;;;4937133;29;20323;-80
2021/07/10 07:02:43;;;;;;;7.07;5.28;;;47.10;30.30;;;;;;4937120;29;20059;-80
2021/07/10 07:05:10;;;;;;;7.60;5.70;;;47.30;30.30;;;;;;4936991;29;20051;-79
2021/07/10 07:07:35;;;;;;;9.57;5.38;;;46.90;30.00;;;;;;4936407;29;20112;-80
2021/07/10 07:10:04;;;;;;;7.63;5.93;;;46.50;30.30;;;;;;4936752;29;20032;-79
2021/07/10 07:12:30;;;;;;;10.27;5.35;;;46.10;30.40;;;;;;4936803;29;20027;-78
2021/07/10 07:14:56;;;;;;;7.47;5.68;;;45.80;30.70;;;;;;4936833;29;20032;-80
2021/07/10 07:17:21;;;;;;;12.68;5.75;;;45.30;31.30;;;;;;4936387;29;20031;-78
2021/07/10 07:19:47;;;;;;;10.40;6.18;;;45.30;31.90;;;;;;4936611;29;20034;-78
2021/07/10 07:22:13;;;;;;;13.93;6.00;;;45.70;32.00;;;;;;4937121;29;20052;-78
2021/07/10 07:24:38;;;;;;;9.00;5.88;;;46.00;31.70;;;;;;4936892;29;20051;-78
2021/07/10 07:27:04;;;;;;;7.72;5.55;;;46.20;31.30;;;;;;4936689;29;20479;-77
2021/07/10 07:29:30;;;;;;;14.05;5.90;;;46.20;31.10;;;;;;4936621;29;20039;-78
2021/07/10 07:31:56;;;;;;;14.57;7.88;;;46.00;31.20;;;;;;4935487;29;20032;-78
2021/07/10 07:34:22;;;;;;;10.20;5.60;;;45.90;31.40;;;;;;4936403;29;20028;-77
2021/07/10 07:36:48;;;;;;;8.35;6.07;;;45.80;31.30;;;;;;4936576;29;20387;-80
2021/07/10 07:39:15;;;;;;;6.30;5.40;;;45.60;31.40;;;;;;4936650;29;20074;-82
2021/07/10 07:41:40;;;;;;;11.35;6.10;;;45.60;31.70;;;;;;4936661;29;20096;-82
2021/07/10 07:44:06;;;;;;;5.80;4.97;;;45.40;31.70;;;;;;4937110;29;20039;-80
2021/07/10 07:46:33;;;;;;;8.02;5.55;;;45.00;31.30;;;;;;4936310;29;20031;-80
2021/07/10 07:48:58;;;;;;;8.07;4.85;;;44.60;31.30;;;;;;4919289;29;20028;-80
2021/07/10 07:51:24;;;;;;;12.65;5.55;;;44.30;32.00;;;;;;4936664;29;20471;-81
2021/07/10 07:53:50;;;;;;;6.03;5.03;;;44.10;32.00;;;;;;4935965;29;20134;-82
2021/07/10 07:56:16;;;;;;;6.63;5.93;;;43.90;31.90;;;;;;4936530;29;20074;-82
2021/07/10 07:58:42;;;;;;;8.52;5.75;;;43.40;32.20;;;;;;4935949;29;20136;-81
2021/07/10 08:01:09;;;;;;;9.48;5.30;;;42.90;32.40;;;;;;4936051;29;20024;-79
2021/07/10 08:03:35;;;;;;;11.38;5.85;;;42.50;32.40;;;;;;4936204;29;20162;-79
2021/07/10 08:06:02;;;;;;;8.32;5.75;;;42.10;32.80;;;;;;4935740;29;20035;-80
2021/07/10 08:08:27;;;;;;;12.27;5.32;;;41.50;33.10;;;;;;4935929;29;20466;-81
2021/07/10 08:10:53;;;;;;;8.15;5.40;;;41.20;34.00;;;;;;4936445;29;20039;-81
2021/07/10 08:13:19;;;;;;;10.93;6.82;;;41.20;34.50;;;;;;4936268;29;20028;-83
2021/07/10 08:15:45;;;;;;;7.97;5.43;;;40.90;33.60;;;;;;4935665;29;20619;-84
2021/07/10 08:18:11;;;;;;;8.48;5.68;;;40.20;34.10;;;;;;4935157;29;20036;-81
2021/07/10 08:20:37;;;;;;;11.25;6.10;;;39.70;34.80;;;;;;4935465;29;20052;-80
2021/07/10 08:23:04;;;;;;;7.07;5.55;;;39.20;35.60;;;;;;4935646;29;20068;-80
2021/07/10 08:25:30;;;;;;;6.30;5.55;;;39.20;35.60;;;;;;4935143;29;20094;-82
2021/07/10 08:27:56;;;;;;;13.32;5.55;;;39.10;34.90;;;;;;4935709;29;20024;-81
2021/07/10 08:30:22;;;;;;;8.95;5.25;;;38.70;35.00;;;;;;4935482;29;20032;-81
2021/07/10 08:32:49;;;;;;;9.35;6.13;;;38.50;35.00;;;;;;4935958;29;20129;-81
2021/07/10 08:35:17;;;;;;;6.10;5.43;;;38.30;35.30;;;;;;4935819;29;20030;-81
2021/07/10 08:37:43;;;;;;;10.13;5.75;;;38.40;35.70;;;;;;4936772;29;20214;-83
2021/07/10 08:40:11;;;;;;;8.52;5.38;;;38.40;35.90;;;;;;4938079;29;20114;-83
2021/07/10 08:42:37;;;;;;;7.60;5.20;;;38.10;35.90;;;;;;4935451;29;20038;-85
2021/07/10 08:45:08;;;;;;;5.95;5.30;;;38.00;35.90;;;;;;4935118;29;20062;-83
2021/07/10 08:47:36;;;;;;;6.78;5.78;;;37.90;35.70;;;;;;4935782;29;20074;-81
2021/07/10 08:50:15;;;;;;;7.00;5.93;;;37.80;36.10;;;;;;4936108;29;20107;-82
2021/07/10 08:52:41;;;;;;;7.50;5.22;;;37.60;36.10;;;;;;4935523;29;20111;-83
2021/07/10 08:55:12;;;;;;;6.28;5.65;;;37.30;36.50;;;;;;4935657;29;20043;-83
2021/07/10 08:57:38;;;;;;;6.85;5.97;;;37.10;36.70;;;;;;4934143;29;20509;-84
2021/07/10 09:00:10;;;;;;;11.73;5.93;;;36.90;36.80;;;;;;4935629;29;20117;-84
2021/07/10 09:02:49;;;;;;;9.10;5.40;;;36.80;37.20;;;;;;4935826;29;20016;-82
2021/07/10 09:05:16;;;;;;;8.20;5.47;;;36.70;37.10;;;;;;4935580;29;20020;-84
2021/07/10 09:08:19;;;;;;;10.77;5.55;;;36.70;37.00;;;;;;4935642;29;20024;-83
2021/07/10 09:11:05;;;;;;;13.65;5.68;;;36.30;37.30;;;;;;4935232;29;20726;-78
2021/07/10 09:13:47;;;;;;;7.40;5.50;;;36.30;37.20;;;;;;4935432;29;20494;-82
2021/07/10 09:16:27;;;;;;;6.65;5.38;;;36.20;37.30;;;;;;4918440;29;20044;-88
2021/07/10 09:18:59;;;;;;;6.50;5.45;;;36.10;37.60;;;;;;4934143;29;20044;-84
2021/07/10 09:21:40;;;;;;;8.45;5.80;;;36.00;37.90;;;;;;4934316;29;20024;-83
2021/07/10 09:24:09;;;;;;;8.88;6.00;;;35.90;38.30;;;;;;4934681;29;20027;-79
2021/07/10 09:26:41;;;;;;;10.07;5.68;;;35.80;38.50;;;;;;4934759;29;20031;-81
2021/07/10 09:29:15;;;;;;;7.20;5.70;;;35.80;38.90;;;;;;4935329;29;20024;-83
2021/07/10 09:31:56;;;;;;;10.48;6.10;;;36.00;39.00;;;;;;4933804;29;20032;-82
2021/07/10 09:34:29;;;;;;;7.20;6.00;;;36.20;39.10;;;;;;4934263;29;20117;-77
2021/07/10 09:37:04;;;;;;;9.93;6.70;;;36.30;39.90;;;;;;4934276;29;20032;-77
2021/07/10 09:39:40;;;;;;;11.98;5.82;;;36.50;39.50;;;;;;4934016;29;20031;-77
2021/07/10 09:42:06;;;;;;;10.32;5.97;;;36.60;39.10;;;;;;4933822;29;20483;-78
2021/07/10 09:44:42;;;;;;;11.35;6.28;;;36.40;39.50;;;;;;4933140;29;20059;-79
2021/07/10 09:47:08;;;;;;;8.57;5.90;;;36.30;39.90;;;;;;4933082;29;20028;-78
2021/07/10 09:49:34;;;;;;;10.73;6.30;;;36.40;40.10;;;;;;4933499;29;20107;-74
2021/07/10 09:52:17;;;;;;;8.10;5.28;;;36.50;39.80;;;;;;4933186;29;20035;-77
2021/07/10 09:54:45;;;;;;;7.40;5.75;;;36.40;39.70;;;;;;4932607;29;20059;-77
2021/07/10 09:57:16;;;;;;;7.30;6.25;;;36.30;39.70;;;;;;4933313;29;20356;-77
2021/07/10 09:59:55;;;;;;;8.63;6.55;;;36.30;39.60;;;;;;4932888;29;20070;-77
2021/07/10 10:02:28;;;;;;;7.53;6.00;;;36.30;39.40;;;;;;4933553;29;20035;-77
2021/07/10 10:05:07;;;;;;;9.98;6.00;;;36.30;39.30;;;;;;4933415;29;20459;-77
2021/07/10 10:07:52;;;;;;;12.93;6.40;;;36.10;39.10;;;;;;4932790;29;20046;-77
2021/07/10 10:10:25;;;;;;;10.75;6.00;;;36.20;39.10;;;;;;4933055;29;20023;-77
2021/07/10 10:13:08;;;;;;;8.45;6.30;;;36.30;38.90;;;;;;4933541;29;20374;-76
2021/07/10 10:15:36;;;;;;;13.30;6.82;;;36.20;38.90;;;;;;4915907;29;20059;-75
2021/07/10 10:18:06;;;;;;;8.35;6.60;;;36.00;38.70;;;;;;4933039;29;20039;-76
2021/07/10 10:20:34;;;;;;;8.68;6.40;;;35.90;38.80;;;;;;4933076;29;20467;-76
2021/07/10 10:23:01;;;;;;;12.93;6.63;;;35.80;38.90;;;;;;4933264;29;20035;-75
2021/07/10 10:25:28;;;;;;;11.45;7.13;;;35.60;39.20;;;;;;4933390;29;20028;-75
2021/07/10 10:27:54;;;;;;;11.68;7.07;;;35.50;39.70;;;;;;4933190;29;20071;-75
2021/07/10 10:30:22;;;;;;;10.77;7.35;;;35.50;39.60;;;;;;4931714;29;20048;-75
2021/07/10 10:32:48;;;;;;;7.78;6.55;;;35.40;39.40;;;;;;4932787;29;20024;-75
2021/07/10 10:35:15;;;;;;;8.55;7.75;;;35.10;39.50;;;;;;4932753;29;20028;-77
2021/07/10 10:37:42;;;;;;;10.88;7.13;;;35.00;39.60;;;;;;4933163;29;20027;-76
2021/07/10 10:40:13;;;;;;;11.10;7.65;;;34.90;39.90;;;;;;4933173;29;20027;-76
2021/07/10 10:42:39;;;;;;;;;;;34.60;40.00;;;;;;4933521;29;20028;-76
2021/07/10 10:45:06;;;;;;;13.68;7.43;;;34.40;40.00;;;;;;4932689;29;19906;-76
2021/07/10 10:47:48;;;;;;;9.60;7.88;;;34.30;39.90;;;;;;4932917;29;20032;-75
2021/07/10 10:50:18;;;;;;;9.90;7.57;;;34.20;39.70;;;;;;4932959;29;20028;-74
2021/07/10 10:52:45;;;;;;;15.48;8.02;;;34.00;39.60;;;;;;4932925;29;20078;-74
2021/07/10 10:55:17;;;;;;;8.65;7.35;;;34.00;40.20;;;;;;4933111;29;20131;-75
2021/07/10 10:57:49;;;;;;;13.40;7.95;;;34.10;40.00;;;;;;4932753;29;20086;-74
2021/07/10 11:00:18;;;;;;;11.43;8.18;;;34.20;40.40;;;;;;4932794;29;20024;-75
2021/07/10 11:02:50;;;;;;;10.15;7.95;;;34.40;39.60;;;;;;4932780;29;20030;-75
2021/07/10 11:05:35;;;;;;;9.88;8.27;;;34.40;39.30;;;;;;4933196;29;20035;-75
2021/07/10 11:08:19;;;;;;;10.90;7.88;;;34.60;39.20;;;;;;4936931;29;20083;-75
2021/07/10 11:11:05;;;;;;;9.20;7.70;;;34.70;38.90;;;;;;4935980;29;20027;-76
2021/07/10 11:13:39;;;;;;;9.10;7.75;;;34.60;38.40;;;;;;4925819;29;20035;-75
2021/07/10 11:16:17;;;;;;;14.32;7.90;;;34.40;38.60;;;;;;4936567;29;20051;-75
2021/07/10 11:19:00;;;;;;;10.73;8.73;;;34.40;39.20;;;;;;4918978;29;20047;-74
2021/07/10 11:21:32;;;;;;;11.48;8.65;;;34.30;38.70;;;;;;4936237;29;20027;-76
2021/07/10 11:26:56;;;;;;;10.13;7.28;;;34.60;38.90;;;;;;4935922;29;20032;-75
2021/07/10 11:29:30;;;;;;;10.32;7.00;;;34.80;38.00;;;;;;4918866;29;20020;-74
2021/07/10 11:32:11;;;;;;;10.35;6.95;;;34.90;37.40;;;;;;4936730;29;20031;-75
2021/07/10 11:34:42;;;;;;;9.70;6.83;;;34.90;36.80;;;;;;4935695;29;20079;-75
2021/07/10 11:37:22;;;;;;;11.05;7.22;;;34.80;37.10;;;;;;4935868;29;20035;-75
2021/07/10 11:40:02;;;;;;;11.27;7.68;;;34.70;37.30;;;;;;4936052;29;20027;-76
2021/07/10 11:42:28;;;;;;;10.10;7.63;;;34.60;37.70;;;;;;4935879;29;20452;-75
2021/07/10 11:45:11;;;;;;;9.00;7.20;;;34.50;37.90;;;;;;4935587;29;20020;-75
2021/07/10 11:47:38;;;;;;;12.25;7.45;;;34.40;37.80;;;;;;4935722;29;20046;-76
2021/07/10 11:50:28;;;;;;;7.57;6.88;;;34.40;38.10;;;;;;4935663;29;20034;-75
2021/07/10 11:53:06;;;;;;;8.15;7.35;;;34.40;38.10;;;;;;4935517;29;20090;-75
2021/07/10 11:55:37;;;;;;;12.57;7.47;;;34.40;38.10;;;;;;4935522;29;20090;-75
2021/07/10 11:58:04;;;;;;;;;;;34.40;37.50;;;;;;4934792;29;20855;-75
2021/07/10 12:00:30;;;;;;;11.20;7.15;;;34.40;37.50;;;;;;4935998;29;19911;-77
2021/07/10 12:02:56;;;;;;;9.63;7.05;;;34.30;37.50;;;;;;4935661;29;20048;-74
2021/07/10 12:05:23;;;;;;;8.18;7.13;;;34.30;37.40;;;;;;4935679;29;20479;-75
2021/07/10 12:07:54;;;;;;;8.65;6.65;;;34.20;37.10;;;;;;4935432;29;20020;-77
2021/07/10 12:10:29;;;;;;;7.85;6.95;;;34.10;37.20;;;;;;4935597;29;20032;-77
2021/07/10 12:13:00;;;;;;;9.00;6.85;;;34.00;37.10;;;;;;4935531;29;20525;-75
2021/07/10 12:15:51;;;;;;;9.52;6.85;;;33.90;36.70;;;;;;4935165;29;20047;-75
2021/07/10 12:18:18;;;;;;;7.85;6.75;;;33.70;36.70;;;;;;4927746;29;20402;-76
2021/07/10 12:20:54;;;;;;;10.35;6.95;;;33.70;36.60;;;;;;4935112;29;20069;-76
2021/07/10 12:23:26;;;;;;;7.47;6.70;;;33.70;36.80;;;;;;4935118;29;20019;-75
2021/07/10 12:25:54;;;;;;;8.30;6.22;;;33.80;36.80;;;;;;4934944;29;20024;-76
2021/07/10 12:28:44;;;;;;;6.97;6.28;;;34.00;36.80;;;;;;4934858;29;20038;-76
2021/07/10 12:31:26;;;;;;;13.32;6.80;;;34.10;36.60;;;;;;4935052;29;20103;-76
2021/07/10 12:34:03;;;;;;;7.40;6.63;;;34.10;36.90;;;;;;4917981;29;20028;-75
2021/07/10 12:36:35;;;;;;;7.18;6.47;;;34.20;36.90;;;;;;4935038;29;20501;-76
2021/07/10 12:39:04;;;;;;;9.55;7.88;;;34.10;37.00;;;;;;4935343;29;20048;-76
2021/07/10 12:41:37;;;;;;;9.82;6.88;;;34.00;37.30;;;;;;4935115;29;20098;-76
2021/07/10 12:44:08;;;;;;;10.73;6.75;;;33.90;37.70;;;;;;4934833;29;20371;-76
2021/07/10 12:46:53;;;;;;;8.05;7.03;;;33.80;37.70;;;;;;4934777;29;20490;-76